createdAt,value
2023-01-13T00:01:25.345Z,7.10
2023-01-13T00:03:53.061Z,7.00
2023-01-13T00:06:23.266Z,7.00
2023-01-13T00:08:51.793Z,7.00
2023-01-13T00:11:19.955Z,7.00
2023-01-13T00:13:47.477Z,6.90
2023-01-13T00:16:16.938Z,6.90
2023-01-13T00:18:45.741Z,6.90
2023-01-13T00:21:15.724Z,6.90
2023-01-13T00:23:43.687Z,6.80
2023-01-13T00:26:14.935Z,6.80
2023-01-13T00:28:42.398Z,6.80
2023-01-13T00:31:12.548Z,6.80
2023-01-13T00:33:40.171Z,6.70
2023-01-13T00:36:09.176Z,6.80
2023-01-13T00:38:38.794Z,6.80
2023-01-13T00:41:08.988Z,6.70
2023-01-13T00:43:37.293Z,6.70
2023-01-13T00:46:06.339Z,6.70
2023-01-13T00:48:34.351Z,6.70
2023-01-13T00:51:07.816Z,6.70
2023-01-13T00:53:37.758Z,6.70
2023-01-13T00:56:14.278Z,6.60
2023-01-13T00:58:43.081Z,6.60
2023-01-13T01:01:14.160Z,6.60
2023-01-13T01:03:41.499Z,6.50
2023-01-13T01:06:12.510Z,6.50
2023-01-13T01:08:40.543Z,6.50
2023-01-13T01:11:08.987Z,6.60
2023-01-13T01:13:36.768Z,6.60
2023-01-13T01:16:09.343Z,6.60
2023-01-13T01:18:38.804Z,6.50
2023-01-13T01:21:06.893Z,6.50
2023-01-13T01:23:34.915Z,6.70
2023-01-13T01:26:13.094Z,6.70
2023-01-13T01:28:40.891Z,6.60
2023-01-13T01:31:16.297Z,6.60
2023-01-13T01:33:43.851Z,6.70
2023-01-13T01:36:13.116Z,6.80
2023-01-13T01:38:40.713Z,6.80
2023-01-13T01:41:09.912Z,6.80
2023-01-13T01:44:02.724Z,6.70
2023-01-13T01:46:39.027Z,6.60
2023-01-13T01:49:17.974Z,6.60
2023-01-13T01:52:09.395Z,6.60
2023-01-13T01:54:39.362Z,6.60
2023-01-13T01:57:10.167Z,6.60
2023-01-13T01:59:38.908Z,6.50
2023-01-13T02:02:07.386Z,6.40
2023-01-13T02:04:39.548Z,6.30
2023-01-13T02:07:07.948Z,6.30
2023-01-13T02:09:36.434Z,6.30
2023-01-13T02:12:22.471Z,6.40
2023-01-13T02:14:49.865Z,6.40
2023-01-13T02:17:41.002Z,6.40
2023-01-13T02:20:30.101Z,6.50
2023-01-13T02:23:06.177Z,6.50
2023-01-13T02:25:36.215Z,6.40
2023-01-13T02:28:14.216Z,6.40
2023-01-13T02:31:09.188Z,6.40
2023-01-13T02:33:48.639Z,6.40
2023-01-13T02:36:29.019Z,6.50
2023-01-13T02:39:03.047Z,6.50
2023-01-13T02:42:09.016Z,6.60
2023-01-13T02:45:04.988Z,6.60
2023-01-13T02:47:36.686Z,6.60
2023-01-13T02:50:11.403Z,6.60
2023-01-13T02:52:51.154Z,6.50
2023-01-13T02:55:31.436Z,6.50
2023-01-13T02:58:00.995Z,6.70
2023-01-13T03:00:29.726Z,6.70
2023-01-13T03:02:57.136Z,6.50
2023-01-13T03:05:25.215Z,6.50
2023-01-13T03:08:15.645Z,6.40
2023-01-13T03:10:44.367Z,6.40
2023-01-13T03:13:20.197Z,6.40
2023-01-13T03:15:53.500Z,6.30
2023-01-13T03:18:51.784Z,6.30
2023-01-13T03:21:25.276Z,6.30
2023-01-13T03:24:28.255Z,6.20
2023-01-13T03:27:11.673Z,6.00
2023-01-13T03:29:43.112Z,5.90
2023-01-13T03:32:40.765Z,5.80
2023-01-13T03:35:18.415Z,5.80
2023-01-13T03:37:56.941Z,5.70
2023-01-13T03:40:30.509Z,5.60
2023-01-13T03:43:22.221Z,5.60
2023-01-13T03:45:55.302Z,5.60
2023-01-13T03:48:25.512Z,5.50
2023-01-13T03:50:56.306Z,5.50
2023-01-13T03:53:30.744Z,5.60
2023-01-13T03:56:05.430Z,5.60
2023-01-13T03:58:47.788Z,5.60
2023-01-13T04:01:31.950Z,5.60
2023-01-13T04:04:03.217Z,5.60
2023-01-13T04:06:30.481Z,5.70
2023-01-13T04:09:14.815Z,5.60
2023-01-13T04:12:12.925Z,5.70
2023-01-13T04:14:41.496Z,5.70
2023-01-13T04:17:08.755Z,5.70
2023-01-13T04:19:36.081Z,5.70
2023-01-13T04:22:03.461Z,5.70
2023-01-13T04:24:30.674Z,5.70
2023-01-13T04:26:58.149Z,5.60
2023-01-13T04:29:25.606Z,5.70
2023-01-13T04:31:52.865Z,5.70
2023-01-13T04:34:20.125Z,5.70
2023-01-13T04:36:47.394Z,5.70
2023-01-13T04:39:14.654Z,5.70
2023-01-13T04:42:01.348Z,5.80
2023-01-13T04:44:31.323Z,5.70
2023-01-13T04:46:58.890Z,5.70
2023-01-13T04:49:26.392Z,5.70
2023-01-13T04:51:53.817Z,5.70
2023-01-13T04:54:39.243Z,5.60
2023-01-13T04:57:06.539Z,5.60
2023-01-13T04:59:34.660Z,5.60
2023-01-13T05:02:02.337Z,5.60
2023-01-13T05:07:32.938Z,5.60
2023-01-13T05:13:29.589Z,5.60
2023-01-13T05:16:15.367Z,5.60
2023-01-13T05:18:45.864Z,5.60
2023-01-13T05:21:33.076Z,5.60
2023-01-13T05:24:18.909Z,5.60
2023-01-13T05:26:46.573Z,5.60
2023-01-13T05:32:44.373Z,5.50
2023-01-13T05:35:13.822Z,5.50
2023-01-13T05:37:41.419Z,5.40
2023-01-13T05:40:28.612Z,5.50
2023-01-13T05:43:25.628Z,5.50
2023-01-13T05:45:58.813Z,5.40
2023-01-13T05:48:35.772Z,5.50
2023-01-13T05:51:04.901Z,5.50
2023-01-13T05:53:32.581Z,5.40
2023-01-13T05:56:00.555Z,5.40
2023-01-13T05:58:28.291Z,5.40
2023-01-13T06:01:04.849Z,5.40
2023-01-13T06:03:32.649Z,5.50
2023-01-13T06:06:02.078Z,5.50
2023-01-13T06:08:39.434Z,5.50
2023-01-13T06:11:07.339Z,5.60
2023-01-13T06:13:34.867Z,5.50
2023-01-13T06:16:02.433Z,5.50
2023-01-13T06:18:29.932Z,5.50
2023-01-13T06:20:57.349Z,5.60
2023-01-13T06:24:15.243Z,5.50
2023-01-13T06:26:42.710Z,5.60
2023-01-13T06:29:13.283Z,5.50
2023-01-13T06:31:40.939Z,5.50
2023-01-13T06:34:13.291Z,5.60
2023-01-13T06:36:51.882Z,5.50
2023-01-13T06:39:24.676Z,5.50
2023-01-13T06:42:12.575Z,5.40
2023-01-13T06:44:40.175Z,5.40
2023-01-13T06:47:07.929Z,5.40
2023-01-13T06:49:35.240Z,5.40
2023-01-13T06:52:02.527Z,5.40
2023-01-13T06:54:30.018Z,5.40
2023-01-13T06:56:57.377Z,5.50
2023-01-13T06:59:25.256Z,5.40
2023-01-13T07:01:53.046Z,5.50
2023-01-13T07:04:20.487Z,5.50
2023-01-13T07:06:47.742Z,5.50
2023-01-13T07:09:15.099Z,5.50
2023-01-13T07:11:42.559Z,5.50
2023-01-13T07:14:28.550Z,5.50
2023-01-13T07:16:56.243Z,5.50
2023-01-13T07:19:23.928Z,5.50
2023-01-13T07:21:52.704Z,5.50
2023-01-13T07:24:20.423Z,5.50
2023-01-13T07:26:47.935Z,5.50
2023-01-13T07:29:15.415Z,5.50
2023-01-13T07:31:42.732Z,5.50
2023-01-13T07:34:10.337Z,5.50
2023-01-13T07:36:37.659Z,5.50
2023-01-13T07:39:05.621Z,5.50
2023-01-13T07:41:51.661Z,5.60
2023-01-13T07:44:18.945Z,5.70
2023-01-13T07:46:46.486Z,5.70
2023-01-13T07:49:14.157Z,5.70
2023-01-13T07:51:41.581Z,5.80
2023-01-13T07:54:08.878Z,5.80
2023-01-13T07:56:36.428Z,5.80
2023-01-13T07:59:04.321Z,5.80
2023-01-13T08:01:32.078Z,5.80
2023-01-13T08:03:59.551Z,5.90
2023-01-13T08:06:27.054Z,6.00
2023-01-13T08:08:54.539Z,6.10
2023-01-13T08:11:23.597Z,6.10
2023-01-13T08:13:55.104Z,6.20
2023-01-13T08:16:23.853Z,6.20
2023-01-13T08:18:51.215Z,6.30
2023-01-13T08:21:18.735Z,6.30
2023-01-13T08:23:46.186Z,6.40
2023-01-13T08:26:16.366Z,6.50
2023-01-13T08:28:44.696Z,6.60
2023-01-13T08:31:15.741Z,6.60
2023-01-13T08:33:43.399Z,6.70
2023-01-13T08:36:12.456Z,6.80
2023-01-13T08:38:41.450Z,6.80
2023-01-13T08:41:14.325Z,6.90
2023-01-13T08:43:41.897Z,6.90
2023-01-13T08:46:09.480Z,6.90
2023-01-13T08:48:37.047Z,7.00
2023-01-13T08:51:06.399Z,7.00
2023-01-13T08:53:34.002Z,7.00
2023-01-13T08:56:01.490Z,7.00
2023-01-13T08:58:29.033Z,6.90
2023-01-13T09:00:56.505Z,6.90
2023-01-13T09:03:23.878Z,7.00
2023-01-13T09:05:51.180Z,6.90
2023-01-13T09:08:18.753Z,6.90
2023-01-13T09:10:46.130Z,7.00
2023-01-13T09:13:14.107Z,7.00
2023-01-13T09:15:44.170Z,7.10
2023-01-13T09:18:12.880Z,7.20
2023-01-13T09:20:40.309Z,7.30
2023-01-13T09:23:10.585Z,7.40
2023-01-13T09:25:38.934Z,7.50
2023-01-13T09:28:09.920Z,7.60
2023-01-13T09:30:38.112Z,7.60
2023-01-13T09:33:24.010Z,7.50
2023-01-13T09:35:51.495Z,7.50
2023-01-13T09:38:18.773Z,7.60
2023-01-13T09:40:48.916Z,7.50
2023-01-13T09:43:55.298Z,7.50
2023-01-13T09:46:48.976Z,7.60
2023-01-13T09:49:28.628Z,7.70
2023-01-13T09:52:03.462Z,7.70
2023-01-13T09:54:42.852Z,7.70
2023-01-13T09:57:12.849Z,7.80
2023-01-13T09:59:40.991Z,7.80
2023-01-13T10:02:15.013Z,7.90
2023-01-13T10:05:02.035Z,8.00
2023-01-13T10:07:32.077Z,7.90
2023-01-13T10:10:01.234Z,7.90
2023-01-13T10:12:49.116Z,7.90
2023-01-13T10:15:20.462Z,7.90
2023-01-13T10:18:24.202Z,7.90
2023-01-13T10:21:00.308Z,7.90
2023-01-13T10:23:46.464Z,7.90
2023-01-13T10:26:47.215Z,8.00
2023-01-13T10:29:26.326Z,8.10
2023-01-13T10:31:55.288Z,8.00
2023-01-13T10:34:23.894Z,8.10
2023-01-13T10:37:00.553Z,8.20
2023-01-13T10:39:28.384Z,8.20
2023-01-13T10:42:07.146Z,8.20
2023-01-13T10:44:59.839Z,8.20
2023-01-13T10:47:36.256Z,8.10
2023-01-13T10:50:09.332Z,8.20
2023-01-13T10:52:54.849Z,8.20
2023-01-13T10:55:30.179Z,8.30
2023-01-13T10:57:57.775Z,8.30
2023-01-13T11:00:33.684Z,8.30
2023-01-13T11:03:21.988Z,8.30
2023-01-13T11:05:57.870Z,8.30
2023-01-13T11:08:28.038Z,8.40
2023-01-13T11:10:57.774Z,8.50
2023-01-13T11:13:57.371Z,8.50
2023-01-13T11:16:25.915Z,8.60
2023-01-13T11:19:02.453Z,8.70
2023-01-13T11:21:56.088Z,8.70
2023-01-13T11:24:59.579Z,8.70
2023-01-13T11:27:41.720Z,8.80
2023-01-13T11:30:34.158Z,8.80
2023-01-13T11:33:10.730Z,8.80
2023-01-13T11:35:51.403Z,8.80
2023-01-13T11:38:49.492Z,8.90
2023-01-13T11:41:16.723Z,9.10
2023-01-13T11:44:07.802Z,9.10
2023-01-13T11:46:35.272Z,9.00
2023-01-13T11:49:04.158Z,9.00
2023-01-13T11:51:53.303Z,9.10
2023-01-13T11:54:26.494Z,9.00
2023-01-13T11:57:23.749Z,9.10
2023-01-13T12:00:19.405Z,9.00
2023-01-13T12:03:01.322Z,9.10
2023-01-13T12:05:42.325Z,9.10
2023-01-13T12:08:53.208Z,9.10
2023-01-13T12:12:22.170Z,9.00
2023-01-13T12:15:55.721Z,9.00
2023-01-13T12:18:51.633Z,9.00
2023-01-13T12:21:29.159Z,9.10
2023-01-13T12:24:17.711Z,9.10
2023-01-13T12:27:21.291Z,9.20
2023-01-13T12:29:52.399Z,9.20
2023-01-13T12:32:25.218Z,9.20
2023-01-13T12:34:58.440Z,9.20
2023-01-13T12:37:55.280Z,9.20
2023-01-13T12:40:28.799Z,9.20
2023-01-13T12:43:21.634Z,9.20
2023-01-13T12:45:49.142Z,9.20
2023-01-13T12:48:57.150Z,9.30
2023-01-13T12:51:28.568Z,9.30
2023-01-13T12:53:56.605Z,9.30
2023-01-13T12:56:44.811Z,9.40
2023-01-13T12:59:20.653Z,9.50
2023-01-13T13:01:50.170Z,9.50
2023-01-13T13:04:20.140Z,9.50
2023-01-13T13:06:54.780Z,9.50
2023-01-13T13:09:30.734Z,9.50
2023-01-13T13:11:58.046Z,9.50
2023-01-13T13:14:55.013Z,9.50
2023-01-13T13:17:28.465Z,9.60
2023-01-13T13:19:57.609Z,9.70
2023-01-13T13:22:28.186Z,9.70
2023-01-13T13:24:55.781Z,9.80
2023-01-13T13:27:38.683Z,9.80
2023-01-13T13:30:33.765Z,9.80
2023-01-13T13:33:13.864Z,9.80
2023-01-13T13:35:53.232Z,9.80
2023-01-13T13:38:54.473Z,9.90
2023-01-13T13:41:52.306Z,9.90
2023-01-13T13:44:59.385Z,9.90
2023-01-13T13:47:35.665Z,10.00
2023-01-13T13:50:13.864Z,10.00
2023-01-13T13:53:01.088Z,10.00
2023-01-13T13:55:29.725Z,10.10
2023-01-13T13:57:59.151Z,10.00
2023-01-13T14:00:37.988Z,10.10
2023-01-13T14:03:22.788Z,10.00
2023-01-13T14:06:02.700Z,10.00
2023-01-13T14:08:39.434Z,10.00
2023-01-13T14:11:27.479Z,10.00
2023-01-13T14:14:14.452Z,10.10
2023-01-13T14:16:41.860Z,10.20
2023-01-13T14:19:32.512Z,10.20
2023-01-13T14:22:02.226Z,10.20
2023-01-13T14:24:31.523Z,10.20
2023-01-13T14:27:10.406Z,10.10
2023-01-13T14:29:38.020Z,10.00
2023-01-13T14:32:06.832Z,9.90
2023-01-13T14:34:35.382Z,9.90
2023-01-13T14:37:03.731Z,9.90
2023-01-13T14:42:18.996Z,10.10
2023-01-13T14:44:49.754Z,10.10
2023-01-13T14:47:17.053Z,10.10
2023-01-13T14:49:59.019Z,10.10
2023-01-13T14:52:29.352Z,10.10
2023-01-13T14:55:05.726Z,10.20
2023-01-13T14:57:35.315Z,10.10
2023-01-13T15:00:14.805Z,10.20
2023-01-13T15:02:48.377Z,10.20
2023-01-13T15:05:19.024Z,10.20
2023-01-13T15:08:11.036Z,10.20
2023-01-13T15:10:45.863Z,10.10
2023-01-13T15:13:41.878Z,10.00
2023-01-13T15:16:24.733Z,9.90
2023-01-13T15:18:53.237Z,9.80
2023-01-13T15:21:20.975Z,9.80
2023-01-13T15:23:48.699Z,9.70
2023-01-13T15:26:28.221Z,9.60
2023-01-13T15:28:57.824Z,9.60
2023-01-13T15:31:26.791Z,9.60
2023-01-13T15:33:54.782Z,9.50
2023-01-13T15:36:26.187Z,9.50
2023-01-13T15:38:53.988Z,9.40
2023-01-13T15:42:24.619Z,9.30
2023-01-13T15:45:10.288Z,9.30
2023-01-13T15:47:37.535Z,9.20
2023-01-13T15:50:05.084Z,9.10
2023-01-13T15:52:32.345Z,9.20
2023-01-13T15:54:59.729Z,9.30
2023-01-13T15:57:33.290Z,9.30
2023-01-13T16:00:04.430Z,9.20
2023-01-13T16:02:34.485Z,9.10
2023-01-13T16:05:02.225Z,9.00
2023-01-13T16:07:29.551Z,8.90
2023-01-13T16:17:25.267Z,8.60
2023-01-13T16:19:53.585Z,8.60
2023-01-13T16:22:23.336Z,8.50
2023-01-13T16:24:50.754Z,8.50
2023-01-13T16:27:23.352Z,8.50
2023-01-13T16:29:52.062Z,8.60
2023-01-13T16:32:22.352Z,8.50
2023-01-13T16:34:50.712Z,8.50
2023-01-13T16:37:27.195Z,8.40
2023-01-13T16:39:55.146Z,8.30
2023-01-13T16:42:22.963Z,8.20
2023-01-13T16:44:50.771Z,8.10
2023-01-13T16:47:19.113Z,8.10
2023-01-13T16:49:46.628Z,7.90
2023-01-13T16:52:16.523Z,7.90
2023-01-13T16:54:43.841Z,7.80
2023-01-13T16:57:13.077Z,7.80
2023-01-13T16:59:40.801Z,7.80
2023-01-13T17:02:16.269Z,7.50
2023-01-13T17:04:43.583Z,7.40
2023-01-13T17:07:16.337Z,7.30
2023-01-13T17:09:43.729Z,7.30
2023-01-13T17:12:11.673Z,7.40
2023-01-13T17:14:38.904Z,7.40
2023-01-13T17:17:06.226Z,7.30
2023-01-13T17:19:33.476Z,7.30
2023-01-13T17:22:00.729Z,7.30
2023-01-13T17:24:30.888Z,7.30
2023-01-13T17:27:00.845Z,7.20
2023-01-13T17:29:28.393Z,7.20
2023-01-13T17:31:55.854Z,7.20
2023-01-13T17:34:23.202Z,7.20
2023-01-13T17:36:50.514Z,7.10
2023-01-13T17:39:24.391Z,7.10
2023-01-13T17:41:53.350Z,7.00
2023-01-13T17:44:22.039Z,7.00
2023-01-13T17:46:50.014Z,6.90
2023-01-13T17:49:19.291Z,6.90
2023-01-13T17:51:48.322Z,6.80
2023-01-13T17:54:15.964Z,6.80
2023-01-13T17:56:44.369Z,6.70
2023-01-13T17:59:12.933Z,6.70
2023-01-13T18:01:40.933Z,6.70
2023-01-13T18:04:17.172Z,6.70
2023-01-13T18:06:45.180Z,6.70
2023-01-13T18:09:12.837Z,6.70
2023-01-13T18:11:40.152Z,6.70
2023-01-13T18:14:09.398Z,6.60
2023-01-13T18:16:37.576Z,6.60
2023-01-13T18:19:23.787Z,6.50
2023-01-13T18:22:09.711Z,6.50
2023-01-13T18:24:55.590Z,6.40
2023-01-13T18:27:47.345Z,6.40
2023-01-13T18:30:15.047Z,6.40
2023-01-13T18:32:46.194Z,6.40
2023-01-13T18:35:13.936Z,6.40
2023-01-13T18:37:42.340Z,6.30
2023-01-13T18:40:12.808Z,6.20
2023-01-13T18:42:54.283Z,6.20
2023-01-13T18:45:24.773Z,6.20
2023-01-13T18:47:53.692Z,6.20
2023-01-13T18:50:24.449Z,6.10
2023-01-13T18:52:52.118Z,6.20
2023-01-13T18:55:20.960Z,6.20
2023-01-13T18:57:48.896Z,6.20
2023-01-13T19:00:24.948Z,6.20
2023-01-13T19:06:26.103Z,6.10
2023-01-13T19:08:54.999Z,6.10
2023-01-13T19:11:24.074Z,6.10
2023-01-13T19:13:52.554Z,6.00
2023-01-13T19:16:23.620Z,5.90
2023-01-13T19:18:51.033Z,5.90
2023-01-13T19:21:18.403Z,5.90
2023-01-13T19:23:45.733Z,5.90
2023-01-13T19:26:13.374Z,5.70
2023-01-13T19:28:40.941Z,5.80
2023-01-13T19:31:10.678Z,5.70
2023-01-13T19:33:39.768Z,5.60
2023-01-13T19:36:09.710Z,5.60
2023-01-13T19:38:37.748Z,5.60
2023-01-13T19:41:11.752Z,5.60
2023-01-13T19:43:57.639Z,5.60
2023-01-13T19:46:26.240Z,5.60
2023-01-13T19:48:53.584Z,5.60
2023-01-13T19:51:21.038Z,5.60
2023-01-13T19:53:48.388Z,5.60
2023-01-13T19:56:15.713Z,5.50
2023-01-13T19:58:50.265Z,5.10
2023-01-13T20:01:17.789Z,5.20
2023-01-13T20:03:46.019Z,5.30
2023-01-13T20:06:14.265Z,5.30
2023-01-13T20:08:45.940Z,5.40
2023-01-13T20:11:22.228Z,5.40
2023-01-13T20:13:51.974Z,5.40
2023-01-13T20:16:19.500Z,5.40
2023-01-13T20:18:50.041Z,5.40
2023-01-13T20:24:19.223Z,5.40
2023-01-13T20:26:49.573Z,5.40
2023-01-13T20:29:16.836Z,5.40
2023-01-13T20:31:51.020Z,5.40
2023-01-13T20:34:19.161Z,5.40
2023-01-13T20:36:48.929Z,5.40
2023-01-13T20:39:26.755Z,5.40
2023-01-13T20:42:14.118Z,5.30
2023-01-13T20:44:44.116Z,5.30
2023-01-13T20:47:11.938Z,5.20
2023-01-13T20:49:42.113Z,5.30
2023-01-13T20:52:09.814Z,5.30
2023-01-13T20:54:38.419Z,5.30
2023-01-13T20:57:07.984Z,5.30
2023-01-13T20:59:36.912Z,5.30
2023-01-13T21:02:06.407Z,5.30
2023-01-13T21:04:33.792Z,5.30
2023-01-13T21:07:01.185Z,5.40
2023-01-13T21:09:29.253Z,5.50
2023-01-13T21:12:15.625Z,5.50
2023-01-13T21:15:01.873Z,5.40
2023-01-13T21:17:47.896Z,5.40
2023-01-13T21:20:16.266Z,5.40
2023-01-13T21:22:48.033Z,5.30
2023-01-13T21:25:16.586Z,5.30
2023-01-13T21:27:44.192Z,5.20
2023-01-13T21:30:15.711Z,5.20
2023-01-13T21:32:44.114Z,5.30
2023-01-13T21:35:13.191Z,5.20
2023-01-13T21:37:41.769Z,5.20
2023-01-13T21:40:12.600Z,5.20
2023-01-13T21:42:58.933Z,5.20
2023-01-13T21:45:45.099Z,5.20
2023-01-13T21:48:14.688Z,5.20
2023-01-13T21:50:42.374Z,5.10
2023-01-13T21:53:09.680Z,5.10
2023-01-13T21:55:37.561Z,5.10
2023-01-13T21:58:11.660Z,5.00
2023-01-13T22:00:40.733Z,4.90
2023-01-13T22:03:09.688Z,4.90
2023-01-13T22:05:37.990Z,4.90
2023-01-13T22:08:06.128Z,4.80
2023-01-13T22:10:34.421Z,4.80
2023-01-13T22:13:22.758Z,4.70
2023-01-13T22:15:50.087Z,4.70
2023-01-13T22:18:20.125Z,4.70
2023-01-13T22:20:48.685Z,4.70
2023-01-13T22:23:16.001Z,4.60
2023-01-13T22:25:43.273Z,4.60
2023-01-13T22:28:13.767Z,4.60
2023-01-13T22:30:41.252Z,4.60
2023-01-13T22:33:08.547Z,4.60
2023-01-13T22:35:36.406Z,4.50
2023-01-13T22:38:07.126Z,4.50
2023-01-13T22:40:36.966Z,4.50
2023-01-13T22:43:05.362Z,4.50
2023-01-13T22:45:32.682Z,4.50
2023-01-13T22:48:06.887Z,4.40
2023-01-13T22:50:35.122Z,4.40
2023-01-13T22:56:22.418Z,4.40
2023-01-13T22:58:56.625Z,4.40
2023-01-13T23:01:28.230Z,4.40
2023-01-13T23:03:59.084Z,4.40
2023-01-13T23:06:29.241Z,4.40
2023-01-13T23:08:56.955Z,4.40
2023-01-13T23:11:27.279Z,4.40
2023-01-13T23:14:03.481Z,4.50
2023-01-13T23:16:36.910Z,4.40
2023-01-13T23:19:08.754Z,4.40
2023-01-13T23:21:38.011Z,4.40
2023-01-13T23:24:07.545Z,4.40
2023-01-13T23:26:36.707Z,4.30
2023-01-13T23:29:06.818Z,4.30
2023-01-13T23:31:34.778Z,4.30
2023-01-13T23:34:02.112Z,4.30
2023-01-13T23:36:29.993Z,4.30
2023-01-13T23:38:59.144Z,4.30
2023-01-13T23:44:22.750Z,4.30
2023-01-13T23:46:50.049Z,4.30
2023-01-13T23:49:17.377Z,4.20
2023-01-13T23:51:44.698Z,4.20
2023-01-13T23:54:12.098Z,4.20
2023-01-13T23:56:39.691Z,4.20
2023-01-13T23:59:07.322Z,4.20
